createdAt,value
2023-02-13T00:01:36.469Z,8.29
2023-02-13T00:03:59.936Z,8.30
2023-02-13T00:06:22.324Z,8.33
2023-02-13T00:08:44.026Z,8.33
2023-02-13T00:11:05.993Z,8.35
2023-02-13T00:13:27.770Z,8.36
2023-02-13T00:16:01.647Z,8.38
2023-02-13T00:18:23.364Z,8.35
2023-02-13T00:20:44.945Z,8.36
2023-02-13T00:23:06.537Z,8.37
2023-02-13T00:25:28.601Z,8.38
2023-02-13T00:27:52.212Z,8.38
2023-02-13T00:30:14.702Z,8.34
2023-02-13T00:32:36.384Z,8.34
2023-02-13T00:34:58.288Z,8.33
2023-02-13T00:37:20.285Z,8.34
2023-02-13T00:39:42.519Z,8.34
2023-02-13T00:42:06.041Z,8.32
2023-02-13T00:44:27.620Z,8.31
2023-02-13T00:46:49.347Z,8.33
2023-02-13T00:49:11.932Z,8.34
2023-02-13T00:51:33.612Z,8.35
2023-02-13T00:53:55.265Z,8.34
2023-02-13T00:56:16.928Z,8.34
2023-02-13T00:58:39.897Z,8.36
2023-02-13T01:01:02.033Z,8.37
2023-02-13T01:03:24.030Z,8.36
2023-02-13T01:05:47.105Z,8.38
2023-02-13T01:08:09.917Z,8.40
2023-02-13T01:10:31.605Z,8.36
2023-02-13T01:12:54.199Z,8.32
2023-02-13T01:15:15.946Z,8.29
2023-02-13T01:17:39.677Z,8.26
2023-02-13T01:20:01.339Z,8.24
2023-02-13T01:22:23.273Z,8.26
2023-02-13T01:24:44.857Z,8.23
2023-02-13T01:27:06.537Z,8.23
2023-02-13T01:29:29.061Z,8.23
2023-02-13T01:31:50.789Z,8.25
2023-02-13T01:34:12.520Z,8.26
2023-02-13T01:36:35.736Z,8.28
2023-02-13T01:38:59.112Z,8.30
2023-02-13T01:41:21.605Z,8.32
2023-02-13T01:43:59.776Z,8.36
2023-02-13T01:46:44.027Z,8.38
2023-02-13T01:49:18.677Z,8.37
2023-02-13T01:51:42.073Z,8.35
2023-02-13T01:54:15.517Z,8.38
2023-02-13T01:56:46.484Z,8.39
2023-02-13T01:59:15.196Z,8.38
2023-02-13T02:01:38.005Z,8.39
2023-02-13T02:04:39.980Z,8.43
2023-02-13T02:07:17.745Z,8.41
2023-02-13T02:09:42.998Z,8.41
2023-02-13T02:12:25.706Z,8.41
2023-02-13T02:14:49.466Z,8.41
2023-02-13T02:17:14.262Z,8.38
2023-02-13T02:19:48.876Z,8.39
2023-02-13T02:22:51.949Z,8.41
2023-02-13T02:26:07.437Z,8.39
2023-02-13T02:29:08.166Z,8.41
2023-02-13T02:32:12.151Z,8.39
2023-02-13T02:35:09.933Z,8.35
2023-02-13T02:37:59.185Z,8.30
2023-02-13T02:41:01.533Z,8.26
2023-02-13T02:43:51.225Z,8.24
2023-02-13T02:47:08.009Z,8.25
2023-02-13T02:49:56.192Z,8.20
2023-02-13T02:52:33.169Z,8.20
2023-02-13T02:55:11.407Z,8.18
2023-02-13T02:58:19.434Z,8.12
2023-02-13T03:01:02.338Z,8.08
2023-02-13T03:03:45.891Z,8.07
2023-02-13T03:06:19.822Z,8.06
2023-02-13T03:09:10.239Z,8.05
2023-02-13T03:11:50.529Z,8.02
2023-02-13T03:14:20.017Z,7.99
2023-02-13T03:17:01.550Z,7.99
2023-02-13T03:20:19.789Z,7.97
2023-02-13T03:23:13.828Z,7.96
2023-02-13T03:26:14.891Z,7.91
2023-02-13T03:29:16.254Z,7.83
2023-02-13T03:32:20.801Z,7.79
2023-02-13T03:35:20.782Z,7.72
2023-02-13T03:37:56.471Z,7.71
2023-02-13T03:41:18.395Z,7.72
2023-02-13T03:43:57.217Z,7.72
2023-02-13T03:46:20.669Z,7.69
2023-02-13T03:49:04.317Z,7.68
2023-02-13T03:51:38.492Z,7.64
2023-02-13T03:54:11.326Z,7.61
2023-02-13T03:56:58.629Z,7.59
2023-02-13T03:59:30.824Z,7.56
2023-02-13T04:02:16.777Z,7.52
2023-02-13T04:05:14.706Z,7.47
2023-02-13T04:07:36.653Z,7.40
2023-02-13T04:10:05.522Z,7.38
2023-02-13T04:12:52.344Z,7.35
2023-02-13T04:15:31.970Z,7.31
2023-02-13T04:18:05.803Z,7.26
2023-02-13T04:20:28.878Z,7.21
2023-02-13T04:22:50.466Z,7.17
2023-02-13T04:25:15.567Z,7.13
2023-02-13T04:27:37.194Z,7.09
2023-02-13T04:29:58.817Z,7.03
2023-02-13T04:32:21.332Z,6.99
2023-02-13T04:34:42.989Z,6.95
2023-02-13T04:37:04.582Z,6.90
2023-02-13T04:39:26.264Z,6.86
2023-02-13T04:41:47.884Z,6.81
2023-02-13T04:44:09.521Z,6.78
2023-02-13T04:46:31.119Z,6.72
2023-02-13T04:48:52.726Z,6.68
2023-02-13T04:51:14.427Z,6.65
2023-02-13T04:53:36.063Z,6.61
2023-02-13T04:55:57.698Z,6.57
2023-02-13T04:58:19.807Z,6.53
2023-02-13T05:00:41.402Z,6.50
2023-02-13T05:03:12.619Z,6.45
2023-02-13T05:05:35.337Z,6.39
2023-02-13T05:07:57.781Z,6.34
2023-02-13T05:10:19.543Z,6.30
2023-02-13T05:12:41.135Z,6.28
2023-02-13T05:15:06.265Z,6.24
2023-02-13T05:17:28.394Z,6.18
2023-02-13T05:19:50.084Z,6.14
2023-02-13T05:22:30.322Z,6.11
2023-02-13T05:24:51.943Z,6.07
2023-02-13T05:27:13.570Z,6.07
2023-02-13T05:29:35.155Z,6.08
2023-02-13T05:31:59.758Z,6.09
2023-02-13T05:34:23.958Z,6.10
2023-02-13T05:36:45.716Z,6.13
2023-02-13T05:39:08.298Z,6.15
2023-02-13T05:41:30.155Z,6.18
2023-02-13T05:43:51.718Z,6.19
2023-02-13T05:46:13.437Z,6.19
2023-02-13T05:48:36.357Z,6.18
2023-02-13T05:50:58.394Z,6.18
2023-02-13T05:53:21.005Z,6.20
2023-02-13T05:55:42.542Z,6.20
2023-02-13T05:58:04.161Z,6.22
2023-02-13T06:00:25.833Z,6.25
2023-02-13T06:02:47.446Z,6.26
2023-02-13T06:05:09.059Z,6.29
2023-02-13T06:07:30.702Z,6.30
2023-02-13T06:09:52.382Z,6.31
2023-02-13T06:12:13.972Z,6.33
2023-02-13T06:14:35.627Z,6.33
2023-02-13T06:16:57.183Z,6.33
2023-02-13T06:19:18.802Z,6.32
2023-02-13T06:21:40.501Z,6.34
2023-02-13T06:24:02.057Z,6.33
2023-02-13T06:26:24.235Z,6.32
2023-02-13T06:28:45.934Z,6.31
2023-02-13T06:31:07.810Z,6.30
2023-02-13T06:33:29.542Z,6.28
2023-02-13T06:35:51.562Z,6.25
2023-02-13T06:38:13.129Z,6.24
2023-02-13T06:40:34.775Z,6.21
2023-02-13T06:42:56.346Z,6.18
2023-02-13T06:45:18.096Z,6.13
2023-02-13T06:47:48.502Z,6.10
2023-02-13T06:50:12.868Z,6.06
2023-02-13T06:52:35.913Z,6.03
2023-02-13T06:54:57.491Z,5.99
2023-02-13T06:57:19.442Z,5.96
2023-02-13T06:59:41.047Z,5.93
2023-02-13T07:02:02.983Z,5.93
2023-02-13T07:04:24.782Z,5.92
2023-02-13T07:06:46.804Z,5.92
2023-02-13T07:09:08.599Z,5.93
2023-02-13T07:11:31.099Z,5.92
2023-02-13T07:13:52.870Z,5.92
2023-02-13T07:16:15.415Z,5.92
2023-02-13T07:18:38.518Z,5.95
2023-02-13T07:21:00.265Z,5.98
2023-02-13T07:23:21.859Z,5.99
2023-02-13T07:25:43.792Z,5.98
2023-02-13T07:28:07.049Z,5.98
2023-02-13T07:30:29.485Z,6.00
2023-02-13T07:32:52.062Z,6.02
2023-02-13T07:35:13.841Z,6.02
2023-02-13T07:37:35.627Z,6.03
2023-02-13T07:39:57.534Z,6.03
2023-02-13T07:42:19.464Z,6.03
2023-02-13T07:44:41.112Z,6.05
2023-02-13T07:47:02.746Z,6.08
2023-02-13T07:49:25.397Z,6.15
2023-02-13T07:51:47.006Z,6.20
2023-02-13T07:54:08.692Z,6.27
2023-02-13T07:56:30.354Z,6.34
2023-02-13T07:58:51.980Z,6.46
2023-02-13T08:01:17.075Z,6.57
2023-02-13T08:03:39.133Z,6.64
2023-02-13T08:06:00.871Z,6.72
2023-02-13T08:08:22.471Z,6.83
2023-02-13T08:11:02.722Z,6.91
2023-02-13T08:13:24.399Z,6.99
2023-02-13T08:15:47.019Z,7.07
2023-02-13T08:18:08.667Z,7.14
2023-02-13T08:20:31.408Z,7.24
2023-02-13T08:22:53.098Z,7.34
2023-02-13T08:25:14.712Z,7.44
2023-02-13T08:27:36.456Z,7.54
2023-02-13T08:29:59.123Z,7.61
2023-02-13T08:32:20.841Z,7.69
2023-02-13T08:34:42.634Z,7.79
2023-02-13T08:37:05.092Z,7.88
2023-02-13T08:39:26.715Z,7.97
2023-02-13T08:41:48.327Z,8.06
2023-02-13T08:44:11.409Z,8.15
2023-02-13T08:46:33.135Z,8.22
2023-02-13T08:48:54.802Z,8.30
2023-02-13T08:51:16.502Z,8.39
2023-02-13T08:53:39.714Z,8.50
2023-02-13T08:56:01.787Z,8.57
2023-02-13T08:58:23.959Z,8.65
2023-02-13T09:00:45.592Z,8.75
2023-02-13T09:03:10.257Z,8.84
2023-02-13T09:05:32.550Z,8.90
2023-02-13T09:07:54.657Z,8.97
2023-02-13T09:10:16.305Z,9.07
2023-02-13T09:12:37.984Z,9.16
2023-02-13T09:14:59.626Z,9.23
2023-02-13T09:17:21.225Z,9.30
2023-02-13T09:19:42.901Z,9.42
2023-02-13T09:22:04.515Z,9.50
2023-02-13T09:24:26.367Z,9.57
2023-02-13T09:26:48.026Z,9.63
2023-02-13T09:29:09.642Z,9.69
2023-02-13T09:31:31.419Z,9.77
2023-02-13T09:33:53.220Z,9.81
2023-02-13T09:36:20.006Z,9.85
2023-02-13T09:38:45.494Z,9.91
2023-02-13T09:41:40.043Z,9.97
2023-02-13T09:44:42.131Z,10.01
2023-02-13T09:47:29.987Z,10.02
2023-02-13T09:50:06.814Z,10.06
2023-02-13T09:52:37.600Z,10.08
2023-02-13T09:55:00.524Z,10.14
2023-02-13T09:57:45.508Z,10.20
2023-02-13T10:00:23.898Z,10.24
2023-02-13T10:02:57.696Z,10.31
2023-02-13T10:05:46.623Z,10.41
2023-02-13T10:08:21.259Z,10.49
2023-02-13T10:11:23.046Z,10.57
2023-02-13T10:13:59.826Z,10.60
2023-02-13T10:16:29.201Z,10.67
2023-02-13T10:19:13.653Z,10.72
2023-02-13T10:21:50.939Z,10.77
2023-02-13T10:24:28.130Z,10.84
2023-02-13T10:26:49.853Z,10.89
2023-02-13T10:30:06.681Z,10.98
2023-02-13T10:32:45.529Z,11.05
2023-02-13T10:35:24.134Z,11.13
2023-02-13T10:37:51.228Z,11.20
2023-02-13T10:40:14.032Z,11.24
2023-02-13T10:42:46.998Z,11.28
2023-02-13T10:45:54.157Z,11.33
2023-02-13T10:49:12.724Z,11.34
2023-02-13T10:51:51.292Z,11.41
2023-02-13T10:55:01.603Z,11.48
2023-02-13T10:58:02.830Z,11.52
2023-02-13T11:00:53.846Z,11.53
2023-02-13T11:03:26.574Z,11.60
2023-02-13T11:05:50.078Z,11.65
2023-02-13T11:08:47.503Z,11.71
2023-02-13T11:11:30.366Z,11.74
2023-02-13T11:14:10.114Z,11.81
2023-02-13T11:16:52.206Z,11.84
2023-02-13T11:19:21.557Z,11.86
2023-02-13T11:21:43.732Z,11.91
2023-02-13T11:24:05.798Z,12.00
2023-02-13T11:26:34.971Z,12.08
2023-02-13T11:29:03.354Z,12.13
2023-02-13T11:31:34.759Z,12.14
2023-02-13T11:33:59.189Z,12.12
2023-02-13T11:36:31.517Z,12.12
2023-02-13T11:39:06.486Z,12.14
2023-02-13T11:41:29.822Z,12.17
2023-02-13T11:44:26.314Z,12.24
2023-02-13T11:46:52.093Z,12.21
2023-02-13T11:49:21.409Z,12.25
2023-02-13T11:51:50.095Z,12.31
2023-02-13T11:54:34.124Z,12.38
2023-02-13T11:57:18.967Z,12.38
2023-02-13T11:59:44.319Z,12.39
2023-02-13T12:02:21.152Z,12.42
2023-02-13T12:04:43.612Z,12.45
2023-02-13T12:07:18.946Z,12.52
2023-02-13T12:09:41.937Z,12.58
2023-02-13T12:12:07.462Z,12.62
2023-02-13T12:14:44.809Z,12.70
2023-02-13T12:17:29.102Z,12.73
2023-02-13T12:19:52.132Z,12.76
2023-02-13T12:22:54.840Z,12.79
2023-02-13T12:25:46.330Z,12.84
2023-02-13T12:28:59.066Z,12.85
2023-02-13T12:32:00.672Z,12.90
2023-02-13T12:34:57.892Z,12.96
2023-02-13T12:38:00.697Z,13.01
2023-02-13T12:40:51.655Z,13.06
2023-02-13T12:44:00.053Z,13.10
2023-02-13T12:46:55.729Z,13.11
2023-02-13T12:49:20.194Z,13.12
2023-02-13T12:52:01.896Z,13.08
2023-02-13T12:55:04.458Z,13.07
2023-02-13T12:58:10.234Z,13.15
2023-02-13T13:01:11.417Z,13.18
2023-02-13T13:04:08.102Z,13.20
2023-02-13T13:07:04.986Z,13.26
2023-02-13T13:09:43.487Z,13.32
2023-02-13T13:12:34.901Z,13.42
2023-02-13T13:15:20.202Z,13.48
2023-02-13T13:17:56.147Z,13.51
2023-02-13T13:20:49.060Z,13.51
2023-02-13T13:23:24.770Z,13.53
2023-02-13T13:25:55.512Z,13.54
2023-02-13T13:28:24.749Z,13.58
2023-02-13T13:30:48.069Z,13.56
2023-02-13T13:33:20.573Z,13.59
2023-02-13T13:36:07.447Z,13.65
2023-02-13T13:38:56.715Z,13.72
2023-02-13T13:41:55.104Z,13.79
2023-02-13T13:44:19.646Z,13.85
2023-02-13T13:46:54.486Z,13.88
2023-02-13T13:49:37.363Z,13.89
2023-02-13T13:52:34.051Z,13.90
2023-02-13T13:55:00.495Z,13.90
2023-02-13T13:57:40.979Z,13.93
2023-02-13T14:00:08.752Z,13.95
2023-02-13T14:02:39.380Z,13.93
2023-02-13T14:05:28.607Z,13.92
2023-02-13T14:08:39.628Z,13.96
2023-02-13T14:11:03.593Z,13.97
2023-02-13T14:13:39.112Z,13.99
2023-02-13T14:16:02.590Z,13.98
2023-02-13T14:18:27.203Z,13.99
2023-02-13T14:20:50.275Z,14.00
2023-02-13T14:23:28.646Z,14.00
2023-02-13T14:26:10.042Z,14.04
2023-02-13T14:28:32.016Z,14.06
2023-02-13T14:31:09.726Z,14.06
2023-02-13T14:33:33.343Z,14.05
2023-02-13T14:36:07.784Z,14.05
2023-02-13T14:38:30.978Z,14.03
2023-02-13T14:40:54.171Z,14.04
2023-02-13T14:43:39.230Z,14.09
2023-02-13T14:46:29.236Z,14.07
2023-02-13T14:49:03.403Z,14.05
2023-02-13T14:51:36.173Z,14.06
2023-02-13T14:54:09.121Z,14.06
2023-02-13T14:56:32.557Z,14.08
2023-02-13T14:59:17.766Z,14.07
2023-02-13T15:01:47.755Z,14.04
2023-02-13T15:04:22.651Z,13.99
2023-02-13T15:06:46.546Z,13.96
2023-02-13T15:09:39.530Z,13.90
2023-02-13T15:12:01.650Z,13.86
2023-02-13T15:14:33.432Z,13.87
2023-02-13T15:17:05.763Z,13.86
2023-02-13T15:19:28.461Z,13.83
2023-02-13T15:21:59.259Z,13.80
2023-02-13T15:24:23.596Z,13.78
2023-02-13T15:26:53.740Z,13.76
2023-02-13T15:29:29.272Z,13.75
2023-02-13T15:31:51.380Z,13.73
2023-02-13T15:34:34.261Z,13.69
2023-02-13T15:36:56.851Z,13.64
2023-02-13T15:39:28.906Z,13.61
2023-02-13T15:42:03.189Z,13.57
2023-02-13T15:44:48.226Z,13.53
2023-02-13T15:47:33.725Z,13.48
2023-02-13T15:49:55.790Z,13.45
2023-02-13T15:52:32.414Z,13.41
2023-02-13T15:54:56.696Z,13.36
2023-02-13T15:57:20.771Z,13.33
2023-02-13T15:59:43.078Z,13.30
2023-02-13T16:02:16.513Z,13.28
2023-02-13T16:04:41.477Z,13.25
2023-02-13T16:07:03.668Z,13.22
2023-02-13T16:09:35.149Z,13.16
2023-02-13T16:12:03.226Z,13.11
2023-02-13T16:14:28.672Z,13.07
2023-02-13T16:17:01.603Z,13.00
2023-02-13T16:19:50.772Z,12.95
2023-02-13T16:22:38.850Z,12.88
2023-02-13T16:25:26.661Z,12.81
2023-02-13T16:28:01.243Z,12.74
2023-02-13T16:30:32.128Z,12.69
2023-02-13T16:33:16.755Z,12.63
2023-02-13T16:35:57.334Z,12.55
2023-02-13T16:38:38.682Z,12.50
2023-02-13T16:41:03.806Z,12.43
2023-02-13T16:43:39.546Z,12.35
2023-02-13T16:46:18.875Z,12.29
2023-02-13T16:48:43.850Z,12.20
2023-02-13T16:51:05.776Z,12.11
2023-02-13T16:53:27.601Z,12.02
2023-02-13T16:56:02.393Z,11.95
2023-02-13T16:58:25.528Z,11.88
2023-02-13T17:00:51.229Z,11.83
2023-02-13T17:03:13.155Z,11.75
2023-02-13T17:05:35.276Z,11.69
2023-02-13T17:07:58.729Z,11.63
2023-02-13T17:10:37.516Z,11.59
2023-02-13T17:13:19.271Z,11.51
2023-02-13T17:15:47.435Z,11.44
2023-02-13T17:18:09.071Z,11.36
2023-02-13T17:20:34.235Z,11.29
2023-02-13T17:23:02.169Z,11.22
2023-02-13T17:25:28.488Z,11.13
2023-02-13T17:27:54.557Z,11.07
2023-02-13T17:30:21.192Z,10.99
2023-02-13T17:32:45.454Z,10.94
2023-02-13T17:35:07.356Z,10.86
2023-02-13T17:37:30.060Z,10.81
2023-02-13T17:39:53.320Z,10.76
2023-02-13T17:42:26.854Z,10.71
2023-02-13T17:44:48.970Z,10.64
2023-02-13T17:47:10.741Z,10.59
2023-02-13T17:49:32.471Z,10.50
2023-02-13T17:51:54.196Z,10.42
2023-02-13T17:54:15.765Z,10.33
2023-02-13T17:56:37.447Z,10.24
2023-02-13T17:58:59.127Z,10.19
2023-02-13T18:01:20.861Z,10.14
2023-02-13T18:03:42.513Z,10.09
2023-02-13T18:06:04.344Z,10.05
2023-02-13T18:08:26.008Z,10.02
2023-02-13T18:10:47.970Z,9.96
2023-02-13T18:13:09.700Z,9.93
2023-02-13T18:15:33.790Z,9.87
2023-02-13T18:17:55.472Z,9.81
2023-02-13T18:20:21.000Z,9.75
2023-02-13T18:22:43.297Z,9.68
2023-02-13T18:25:05.781Z,9.67
2023-02-13T18:27:28.301Z,9.63
2023-02-13T18:29:49.912Z,9.57
2023-02-13T18:32:11.856Z,9.53
2023-02-13T18:34:33.610Z,9.47
2023-02-13T18:36:55.234Z,9.40
2023-02-13T18:39:17.489Z,9.34
2023-02-13T18:41:39.121Z,9.29
2023-02-13T18:44:00.846Z,9.21
2023-02-13T18:46:24.212Z,9.15
2023-02-13T18:48:45.909Z,9.04
2023-02-13T18:51:07.734Z,9.00
2023-02-13T18:53:29.815Z,8.98
2023-02-13T18:56:06.614Z,8.92
2023-02-13T18:58:28.960Z,8.85
2023-02-13T19:00:50.589Z,8.81
2023-02-13T19:03:12.182Z,8.76
2023-02-13T19:05:33.801Z,8.73
2023-02-13T19:07:55.517Z,8.70
2023-02-13T19:10:17.534Z,8.65
2023-02-13T19:12:39.144Z,8.60
2023-02-13T19:15:00.861Z,8.56
2023-02-13T19:17:22.546Z,8.51
2023-02-13T19:19:48.799Z,8.50
2023-02-13T19:22:10.428Z,8.49
2023-02-13T19:24:32.873Z,8.46
2023-02-13T19:26:54.568Z,8.44
2023-02-13T19:29:16.186Z,8.41
2023-02-13T19:31:38.316Z,8.36
2023-02-13T19:34:05.591Z,8.34
2023-02-13T19:36:30.225Z,8.30
2023-02-13T19:38:57.889Z,8.25
2023-02-13T19:41:19.498Z,8.19
2023-02-13T19:43:41.465Z,8.14
2023-02-13T19:46:10.079Z,8.08
2023-02-13T19:48:32.529Z,8.02
2023-02-13T19:50:54.155Z,7.97
2023-02-13T19:53:16.718Z,7.91
2023-02-13T19:55:38.340Z,7.87
2023-02-13T19:58:00.217Z,7.83
2023-02-13T20:00:22.849Z,7.77
2023-02-13T20:02:44.503Z,7.71
2023-02-13T20:05:08.442Z,7.65
2023-02-13T20:07:30.143Z,7.61
2023-02-13T20:09:51.737Z,7.57
2023-02-13T20:12:13.402Z,7.55
2023-02-13T20:14:35.092Z,7.54
2023-02-13T20:16:58.246Z,7.54
2023-02-13T20:19:19.854Z,7.52
2023-02-13T20:21:43.217Z,7.50
2023-02-13T20:24:05.826Z,7.47
2023-02-13T20:26:27.421Z,7.43
2023-02-13T20:28:49.147Z,7.38
2023-02-13T20:31:21.870Z,7.35
2023-02-13T20:33:46.241Z,7.30
2023-02-13T20:36:20.690Z,7.25
2023-02-13T20:38:43.300Z,7.22
2023-02-13T20:41:14.974Z,7.18
2023-02-13T20:43:37.360Z,7.11
2023-02-13T20:45:59.217Z,7.02
2023-02-13T20:48:20.868Z,6.95
2023-02-13T20:50:42.589Z,6.91
2023-02-13T20:53:04.180Z,6.87
2023-02-13T20:55:25.837Z,6.83
2023-02-13T20:57:47.620Z,6.79
2023-02-13T21:00:12.648Z,6.76
2023-02-13T21:02:34.513Z,6.70
2023-02-13T21:04:56.605Z,6.67
2023-02-13T21:07:18.548Z,6.64
2023-02-13T21:09:41.019Z,6.61
2023-02-13T21:12:03.446Z,6.58
2023-02-13T21:14:25.065Z,6.54
2023-02-13T21:16:46.750Z,6.53
2023-02-13T21:19:15.029Z,6.50
2023-02-13T21:21:37.329Z,6.47
2023-02-13T21:24:07.647Z,6.43
2023-02-13T21:26:31.173Z,6.38
2023-02-13T21:28:53.934Z,6.33
2023-02-13T21:31:23.703Z,6.30
2023-02-13T21:33:45.625Z,6.27
2023-02-13T21:36:10.506Z,6.25
2023-02-13T21:38:32.706Z,6.24
2023-02-13T21:40:54.370Z,6.22
2023-02-13T21:43:15.987Z,6.19
2023-02-13T21:45:37.679Z,6.16
2023-02-13T21:47:59.352Z,6.14
2023-02-13T21:50:22.241Z,6.10
2023-02-13T21:52:44.215Z,6.09
2023-02-13T21:55:07.908Z,6.09
2023-02-13T21:57:30.725Z,6.08
2023-02-13T21:59:52.337Z,6.08
2023-02-13T22:02:14.093Z,6.04
2023-02-13T22:04:35.789Z,5.99
2023-02-13T22:06:57.453Z,5.97
2023-02-13T22:09:21.343Z,5.93
2023-02-13T22:11:43.496Z,5.89
2023-02-13T22:14:08.812Z,5.86
2023-02-13T22:16:33.673Z,5.81
2023-02-13T22:18:55.627Z,5.76
2023-02-13T22:21:21.813Z,5.70
2023-02-13T22:23:45.305Z,5.65
2023-02-13T22:26:08.355Z,5.60
2023-02-13T22:28:31.005Z,5.54
2023-02-13T22:30:52.943Z,5.49
2023-02-13T22:33:14.620Z,5.44
2023-02-13T22:35:40.537Z,5.41
2023-02-13T22:38:03.004Z,5.40
2023-02-13T22:40:24.597Z,5.41
2023-02-13T22:42:46.226Z,5.41
2023-02-13T22:45:08.497Z,5.42
2023-02-13T22:47:30.219Z,5.42
2023-02-13T22:49:51.780Z,5.39
2023-02-13T22:52:13.483Z,5.39
2023-02-13T22:54:35.164Z,5.36
2023-02-13T22:56:56.792Z,5.34
2023-02-13T22:59:19.284Z,5.30
2023-02-13T23:01:40.889Z,5.27
2023-02-13T23:04:02.524Z,5.24
2023-02-13T23:06:26.913Z,5.20
2023-02-13T23:08:52.360Z,5.14
2023-02-13T23:11:36.050Z,5.14
2023-02-13T23:13:57.952Z,5.10
2023-02-13T23:16:19.808Z,5.08
2023-02-13T23:18:41.693Z,5.06
2023-02-13T23:21:08.152Z,5.04
2023-02-13T23:23:29.912Z,4.97
2023-02-13T23:25:51.579Z,4.90
2023-02-13T23:28:13.332Z,4.83
2023-02-13T23:30:35.036Z,4.78
2023-02-13T23:32:59.124Z,4.75
2023-02-13T23:35:20.907Z,4.70
2023-02-13T23:37:43.868Z,4.65
2023-02-13T23:40:06.753Z,4.61
2023-02-13T23:42:28.806Z,4.56
2023-02-13T23:44:50.486Z,4.52
2023-02-13T23:47:12.070Z,4.48
2023-02-13T23:49:34.485Z,4.42
2023-02-13T23:51:56.116Z,4.39
2023-02-13T23:54:21.648Z,4.35
2023-02-13T23:56:43.875Z,4.29
2023-02-13T23:59:05.498Z,4.26
